Time;durP1;ratioP1;P1;durP2;ratioP2;P2;SDS_P1;SDS_P2;PMS_P1;PMS_P2;Temp;Humidity;BMP_temperature;BMP_pressure;BME280_temperature;BME280_humidity;BME280_pressure;Samples;Min_cycle;Max_cycle;Signal;HPM_P1;HPM_P2
2024/01/24 00:00:37;;;;;;;6.25;3.70;;;12.70;98.90;;;;;;5034750;28;20032;-77
2024/01/24 00:03:02;;;;;;;5.50;3.88;;;12.70;98.80;;;;;;5046297;28;20021;-77
2024/01/24 00:05:28;;;;;;;6.43;3.42;;;12.70;98.80;;;;;;5038779;28;20483;-77
2024/01/24 00:07:54;;;;;;;5.68;3.30;;;12.80;98.60;;;;;;5039957;28;20064;-86
2024/01/24 00:10:19;;;;;;;5.22;3.40;;;12.80;98.50;;;;;;5035160;28;20248;-77
2024/01/24 00:12:45;;;;;;;5.03;3.13;;;12.90;98.60;;;;;;5047183;28;20082;-77
2024/01/24 00:15:11;;;;;;;5.57;3.03;;;12.80;98.40;;;;;;5045233;28;20025;-76
2024/01/24 00:17:36;;;;;;;6.20;3.03;;;12.80;98.50;;;;;;5041076;28;20024;-77
2024/01/24 00:20:03;;;;;;;5.95;3.20;;;12.80;98.50;;;;;;5041764;28;20833;-85
2024/01/24 00:22:28;;;;;;;4.90;2.70;;;12.80;98.60;;;;;;5037834;28;20016;-78
2024/01/24 00:24:54;;;;;;;5.13;2.90;;;12.80;98.70;;;;;;5035448;28;20109;-77
2024/01/24 00:27:20;;;;;;;4.90;2.90;;;12.80;98.70;;;;;;5038767;28;20112;-78
2024/01/24 00:29:45;;;;;;;5.57;2.55;;;12.80;98.80;;;;;;5045883;28;20496;-77
2024/01/24 00:32:11;;;;;;;4.72;2.50;;;12.70;98.80;;;;;;5032864;28;20021;-78
2024/01/24 00:34:36;;;;;;;3.85;2.33;;;12.80;98.90;;;;;;5031927;28;22570;-81
2024/01/24 00:37:02;;;;;;;4.47;2.60;;;12.80;98.90;;;;;;5042187;28;20028;-77
2024/01/24 00:39:28;;;;;;;5.88;2.53;;;12.80;99.00;;;;;;5043295;28;20044;-81
2024/01/24 00:41:56;;;;;;;4.93;2.35;;;12.80;98.90;;;;;;5040503;28;20028;-77
2024/01/24 00:44:21;;;;;;;4.15;2.10;;;12.80;99.00;;;;;;5041008;28;20028;-77
2024/01/24 00:46:47;;;;;;;3.88;2.25;;;12.80;99.10;;;;;;5037735;28;20025;-78
2024/01/24 00:49:13;;;;;;;5.38;2.28;;;12.80;99.10;;;;;;5036101;28;20465;-77
2024/01/24 00:51:38;;;;;;;5.47;2.00;;;12.90;99.10;;;;;;5040382;28;20051;-77
2024/01/24 00:54:04;;;;;;;2.92;1.70;;;12.80;99.10;;;;;;5035306;28;20033;-76
2024/01/24 00:56:30;;;;;;;3.70;1.63;;;12.90;99.10;;;;;;5035563;28;20021;-76
2024/01/24 00:58:55;;;;;;;3.28;1.60;;;12.90;99.10;;;;;;5034231;28;20091;-78
2024/01/24 01:01:21;;;;;;;2.05;1.30;;;12.90;99.20;;;;;;5041337;28;20035;-78
2024/01/24 01:03:47;;;;;;;3.55;1.50;;;12.90;99.20;;;;;;5028240;28;20031;-78
2024/01/24 01:06:13;;;;;;;3.33;1.45;;;12.90;99.20;;;;;;5039509;28;20037;-78
2024/01/24 01:08:38;;;;;;;4.65;1.58;;;12.90;99.20;;;;;;5035704;28;20034;-78
2024/01/24 01:11:07;;;;;;;3.03;1.60;;;12.90;99.30;;;;;;5038791;28;20035;-78
2024/01/24 01:13:34;;;;;;;3.90;1.60;;;12.90;99.30;;;;;;5033831;28;20017;-79
2024/01/24 01:16:00;;;;;;;3.45;1.67;;;12.90;99.30;;;;;;5027760;28;20032;-78
2024/01/24 01:18:25;;;;;;;4.30;1.77;;;12.90;99.50;;;;;;5035964;28;20450;-79
2024/01/24 01:20:51;;;;;;;2.72;1.63;;;12.90;99.40;;;;;;5029961;28;20033;-79
2024/01/24 01:23:17;;;;;;;3.33;2.25;;;12.90;99.40;;;;;;5041597;28;20079;-78
2024/01/24 01:25:42;;;;;;;3.25;1.80;;;12.90;99.40;;;;;;5037048;28;20036;-79
2024/01/24 01:28:08;;;;;;;3.63;1.73;;;12.90;99.40;;;;;;5035562;28;20043;-78
2024/01/24 01:30:34;;;;;;;3.08;1.70;;;12.90;99.40;;;;;;5047736;28;20036;-78
2024/01/24 01:32:59;;;;;;;3.15;1.67;;;12.90;99.40;;;;;;5028952;28;20048;-78
2024/01/24 01:35:25;;;;;;;4.40;1.50;;;12.90;99.40;;;;;;5040809;28;20065;-78
2024/01/24 01:37:51;;;;;;;4.03;1.70;;;12.90;99.40;;;;;;5046762;28;20092;-78
2024/01/24 01:40:16;;;;;;;2.33;1.80;;;12.90;99.40;;;;;;5045814;28;20078;-78
2024/01/24 01:42:45;;;;;;;3.05;1.85;;;12.90;99.40;;;;;;5042920;28;20358;-78
2024/01/24 01:45:12;;;;;;;3.10;1.60;;;12.90;99.40;;;;;;5045899;28;20048;-78
2024/01/24 01:47:39;;;;;;;4.43;1.85;;;12.90;99.30;;;;;;5051394;28;20136;-78
2024/01/24 01:50:09;;;;;;;3.72;1.90;;;12.90;99.30;;;;;;5039731;28;20033;-78
2024/01/24 01:52:35;;;;;;;4.65;2.10;;;13.00;99.20;;;;;;5049131;28;20476;-78
2024/01/24 01:55:04;;;;;;;3.13;1.80;;;13.00;99.10;;;;;;5035623;28;20036;-81
2024/01/24 01:57:30;;;;;;;4.75;2.47;;;13.00;99.10;;;;;;5047694;28;20024;-77
2024/01/24 01:59:56;;;;;;;3.00;1.90;;;13.00;99.00;;;;;;5031847;28;20385;-78
2024/01/24 02:02:22;;;;;;;4.18;2.17;;;13.00;99.00;;;;;;5038683;28;20021;-77
2024/01/24 02:04:48;;;;;;;7.05;2.20;;;13.00;98.80;;;;;;5043126;28;20036;-82
2024/01/24 02:07:15;;;;;;;4.85;1.90;;;13.10;98.70;;;;;;5031533;28;20026;-78
2024/01/24 02:09:41;;;;;;;6.13;1.70;;;13.10;98.70;;;;;;5036525;28;20041;-78
2024/01/24 02:12:06;;;;;;;5.85;2.10;;;13.10;98.60;;;;;;5038921;28;20125;-78
2024/01/24 02:14:32;;;;;;;3.63;1.33;;;13.10;98.50;;;;;;5041459;28;20108;-78
2024/01/24 02:16:58;;;;;;;7.00;2.05;;;13.10;98.40;;;;;;5038824;28;20029;-78
2024/01/24 02:19:25;;;;;;;4.90;1.65;;;13.10;98.20;;;;;;5041452;28;20093;-78
2024/01/24 02:21:51;;;;;;;5.93;2.05;;;13.10;97.70;;;;;;5047649;28;20043;-78
2024/01/24 02:24:17;;;;;;;4.65;1.75;;;13.10;97.40;;;;;;5044145;28;20037;-77
2024/01/24 02:26:44;;;;;;;4.97;1.38;;;13.10;97.00;;;;;;5040597;28;20052;-78
2024/01/24 02:29:11;;;;;;;4.63;1.58;;;13.20;96.80;;;;;;5039663;28;20106;-78
2024/01/24 02:31:37;;;;;;;7.50;1.77;;;13.10;97.00;;;;;;5040553;28;20024;-78
2024/01/24 02:34:03;;;;;;;7.03;1.52;;;13.10;97.30;;;;;;5040429;28;20049;-78
2024/01/24 02:36:28;;;;;;;6.10;1.70;;;13.00;97.60;;;;;;5049918;28;20094;-78
2024/01/24 02:38:54;;;;;;;7.93;2.05;;;13.00;97.70;;;;;;5044859;28;20055;-83
2024/01/24 02:41:20;;;;;;;15.75;2.75;;;12.90;97.50;;;;;;5050966;28;20026;-80
2024/01/24 02:43:46;;;;;;;8.93;2.47;;;12.80;96.30;;;;;;5029293;28;20022;-79
2024/01/24 02:46:12;;;;;;;9.77;2.50;;;12.90;95.80;;;;;;5040875;28;20026;-78
2024/01/24 02:48:37;;;;;;;10.70;2.65;;;12.90;94.90;;;;;;5043476;28;20017;-78
2024/01/24 02:51:03;;;;;;;13.02;2.88;;;12.90;94.50;;;;;;5045602;28;20028;-78
2024/01/24 02:53:29;;;;;;;13.50;2.83;;;12.90;93.90;;;;;;5039652;28;20014;-78
2024/01/24 02:55:54;;;;;;;16.40;3.35;;;12.90;93.20;;;;;;5050160;28;20346;-78
2024/01/24 02:58:20;;;;;;;16.48;3.53;;;12.90;93.00;;;;;;5035145;28;20064;-78
2024/01/24 03:00:45;;;;;;;14.57;3.38;;;13.00;92.90;;;;;;5040155;28;20088;-78
2024/01/24 03:03:11;;;;;;;20.08;4.07;;;12.90;92.40;;;;;;5050715;28;20411;-78
2024/01/24 03:05:37;;;;;;;17.17;3.88;;;12.90;91.30;;;;;;5048439;28;20029;-78
2024/01/24 03:08:03;;;;;;;18.27;5.10;;;13.00;90.90;;;;;;5049179;28;20024;-78
2024/01/24 03:10:28;;;;;;;23.67;4.68;;;13.00;90.50;;;;;;5039641;28;20123;-78
2024/01/24 03:12:54;;;;;;;19.23;4.13;;;13.00;90.50;;;;;;5036381;28;20027;-78
2024/01/24 03:15:21;;;;;;;18.48;4.65;;;13.00;90.60;;;;;;5043587;28;20033;-78
2024/01/24 03:17:46;;;;;;;21.13;4.18;;;13.00;90.70;;;;;;5048223;28;20039;-78
2024/01/24 03:20:13;;;;;;;19.42;4.30;;;13.00;90.60;;;;;;5046817;28;20028;-78
2024/01/24 03:22:40;;;;;;;16.73;3.22;;;12.90;90.90;;;;;;5043051;28;20096;-78
2024/01/24 03:25:06;;;;;;;19.13;3.95;;;13.00;90.70;;;;;;5041370;28;20088;-79
2024/01/24 03:27:32;;;;;;;21.33;4.10;;;13.00;90.60;;;;;;5042543;28;20029;-78
2024/01/24 03:29:58;;;;;;;20.60;4.38;;;13.00;90.30;;;;;;5039322;28;20363;-78
2024/01/24 03:32:24;;;;;;;19.88;4.78;;;12.90;90.20;;;;;;5039039;28;20014;-85
2024/01/24 03:34:53;;;;;;;20.00;4.53;;;12.90;90.20;;;;;;5046816;28;20037;-78
2024/01/24 03:37:19;;;;;;;25.05;4.53;;;12.90;90.30;;;;;;5041107;28;20021;-78
2024/01/24 03:39:45;;;;;;;23.73;4.78;;;12.90;90.00;;;;;;5039610;28;20465;-78
2024/01/24 03:42:10;;;;;;;22.15;4.75;;;12.80;90.10;;;;;;5043661;28;20053;-78
2024/01/24 03:44:36;;;;;;;21.77;4.63;;;12.90;89.80;;;;;;5050540;28;20044;-83
2024/01/24 03:47:01;;;;;;;24.17;5.68;;;12.90;89.70;;;;;;5036531;28;20405;-79
2024/01/24 03:49:27;;;;;;;19.63;4.82;;;12.80;89.50;;;;;;5038191;28;20060;-78
2024/01/24 03:51:53;;;;;;;28.67;4.93;;;12.80;89.70;;;;;;5041909;28;20020;-78
2024/01/24 03:54:19;;;;;;;22.52;4.68;;;12.80;89.60;;;;;;5043104;28;20383;-78
2024/01/24 03:56:45;;;;;;;26.13;6.57;;;12.70;89.70;;;;;;5046894;28;20072;-78
2024/01/24 03:59:10;;;;;;;24.95;5.07;;;12.70;89.70;;;;;;5036427;28;20386;-78
2024/01/24 04:01:36;;;;;;;26.38;6.00;;;12.70;89.40;;;;;;5042850;28;20017;-79
2024/01/24 04:04:02;;;;;;;26.90;6.32;;;12.70;89.20;;;;;;5047237;28;20424;-78
2024/01/24 04:06:28;;;;;;;32.67;6.43;;;12.70;89.10;;;;;;5038154;28;20449;-83
2024/01/24 04:08:53;;;;;;;26.92;6.32;;;12.70;88.80;;;;;;5035857;28;20336;-78
2024/01/24 04:11:19;;;;;;;28.77;7.00;;;12.60;88.90;;;;;;5033456;28;20108;-78
2024/01/24 04:13:50;;;;;;;24.67;6.75;;;12.60;88.50;;;;;;5040463;28;20028;-79
2024/01/24 04:16:15;;;;;;;33.88;6.80;;;12.60;88.20;;;;;;5028921;28;20025;-78
2024/01/24 04:18:41;;;;;;;34.08;7.57;;;12.60;88.20;;;;;;5041442;28;20511;-78
2024/01/24 04:21:07;;;;;;;35.58;7.30;;;12.60;88.20;;;;;;5045070;28;20021;-78
2024/01/24 04:23:32;;;;;;;33.30;7.00;;;12.50;88.30;;;;;;5038546;28;20039;-79
2024/01/24 04:25:58;;;;;;;33.20;7.70;;;12.60;88.20;;;;;;5036185;28;20032;-78
2024/01/24 04:28:23;;;;;;;30.55;7.82;;;12.50;88.10;;;;;;5046579;28;20044;-79
2024/01/24 04:30:49;;;;;;;34.83;7.38;;;12.50;88.10;;;;;;5049722;28;20048;-78
2024/01/24 04:33:15;;;;;;;40.78;7.90;;;12.50;87.90;;;;;;5052228;28;20108;-78
2024/01/24 04:35:40;;;;;;;32.20;7.20;;;12.50;87.90;;;;;;5039687;28;20044;-79
2024/01/24 04:38:06;;;;;;;33.67;7.25;;;12.50;88.00;;;;;;5054351;28;20040;-78
2024/01/24 04:40:32;;;;;;;33.95;7.43;;;12.40;88.00;;;;;;5046228;28;20066;-78
2024/01/24 04:42:58;;;;;;;33.08;7.97;;;12.30;88.20;;;;;;5037431;28;20025;-78
2024/01/24 04:45:23;;;;;;;30.50;7.57;;;12.30;88.30;;;;;;5046843;28;20032;-78
2024/01/24 04:47:49;;;;;;;34.25;8.38;;;12.30;88.60;;;;;;5035901;28;20025;-78
2024/01/24 04:50:15;;;;;;;34.53;7.03;;;12.30;88.70;;;;;;5036794;28;20121;-78
2024/01/24 04:52:40;;;;;;;40.88;8.57;;;12.30;88.60;;;;;;5039178;28;20378;-79
2024/01/24 04:55:11;;;;;;;36.97;8.52;;;12.30;88.80;;;;;;5032900;28;20029;-78
2024/01/24 04:57:38;;;;;;;34.00;7.40;;;12.30;88.90;;;;;;5045280;28;20029;-78
2024/01/24 05:00:07;;;;;;;35.70;7.93;;;12.30;88.90;;;;;;5041993;28;20037;-78
2024/01/24 05:02:33;;;;;;;36.70;8.32;;;12.30;88.90;;;;;;5040587;28;20013;-78
2024/01/24 05:04:58;;;;;;;38.22;9.98;;;12.30;88.90;;;;;;5037915;28;20484;-78
2024/01/24 05:07:24;;;;;;;38.38;7.85;;;12.30;88.90;;;;;;5032280;28;20025;-78
2024/01/24 05:09:50;;;;;;;35.80;9.18;;;12.30;89.00;;;;;;5038261;28;20045;-78
2024/01/24 05:12:15;;;;;;;46.47;8.23;;;12.30;89.00;;;;;;5035661;28;20029;-78
2024/01/24 05:14:42;;;;;;;40.88;9.35;;;12.30;89.00;;;;;;5041736;28;20694;-78
2024/01/24 05:17:08;;;;;;;35.33;8.88;;;12.30;89.10;;;;;;5044063;28;20013;-82
2024/01/24 05:19:35;;;;;;;37.17;8.30;;;12.20;89.10;;;;;;5038530;28;20472;-78
2024/01/24 05:22:01;;;;;;;39.22;8.10;;;12.20;89.10;;;;;;5048592;28;20025;-78
2024/01/24 05:24:26;;;;;;;35.55;7.95;;;12.20;88.70;;;;;;5045387;28;20032;-78
2024/01/24 05:26:52;;;;;;;33.03;7.93;;;12.10;88.70;;;;;;5039982;28;20047;-80
2024/01/24 05:29:18;;;;;;;36.92;9.02;;;12.10;88.90;;;;;;5045870;28;20382;-78
2024/01/24 05:31:43;;;;;;;43.70;9.57;;;12.10;88.70;;;;;;5034804;28;20104;-79
2024/01/24 05:34:09;;;;;;;38.95;8.98;;;12.00;88.70;;;;;;5031404;28;20503;-78
2024/01/24 05:36:35;;;;;;;62.13;10.63;;;12.00;88.70;;;;;;5044612;28;20028;-78
2024/01/24 05:39:02;;;;;;;39.92;8.77;;;11.90;88.80;;;;;;5031828;28;20040;-78
2024/01/24 05:41:27;;;;;;;42.72;9.73;;;11.90;88.70;;;;;;5045368;28;20020;-78
2024/01/24 05:43:53;;;;;;;50.58;10.15;;;11.90;88.40;;;;;;5041267;28;20035;-78
2024/01/24 05:46:19;;;;;;;46.63;9.82;;;11.80;88.40;;;;;;5038394;28;20445;-78
2024/01/24 05:48:45;;;;;;;40.67;9.18;;;11.90;88.00;;;;;;5043775;28;20108;-78
2024/01/24 05:51:11;;;;;;;49.97;10.27;;;11.90;88.00;;;;;;5041268;28;20116;-78
2024/01/24 05:53:41;;;;;;;42.22;10.40;;;11.80;87.90;;;;;;5038452;27;20017;-78
2024/01/24 05:56:06;;;;;;;42.60;9.30;;;11.80;88.10;;;;;;5040722;28;20055;-78
2024/01/24 05:58:32;;;;;;;41.17;8.93;;;11.70;88.00;;;;;;5043741;28;20028;-79
2024/01/24 06:00:57;;;;;;;42.72;8.65;;;11.70;88.30;;;;;;5028784;28;20427;-78
2024/01/24 06:03:23;;;;;;;46.50;9.77;;;11.70;87.90;;;;;;5045040;28;20066;-78
2024/01/24 06:05:49;;;;;;;43.45;9.50;;;11.80;88.00;;;;;;5041329;28;20481;-89
2024/01/24 06:08:15;;;;;;;49.13;10.45;;;11.80;87.80;;;;;;5037203;28;20488;-78
2024/01/24 06:10:40;;;;;;;46.75;9.70;;;11.80;87.70;;;;;;5043302;28;20041;-78
2024/01/24 06:13:06;;;;;;;51.65;10.55;;;11.80;87.20;;;;;;5044559;28;20471;-78
2024/01/24 06:15:31;;;;;;;48.22;10.20;;;11.70;87.10;;;;;;5033160;28;20099;-89
2024/01/24 06:17:57;;;;;;;42.35;9.48;;;11.70;87.10;;;;;;5038229;28;20090;-79
2024/01/24 06:20:23;;;;;;;51.83;11.43;;;11.60;87.30;;;;;;5037012;28;20068;-79
2024/01/24 06:22:48;;;;;;;57.35;10.15;;;11.60;87.30;;;;;;5051838;28;20450;-78
2024/01/24 06:25:14;;;;;;;48.85;10.23;;;11.60;87.30;;;;;;5047063;28;20032;-79
2024/01/24 06:27:41;;;;;;;45.30;9.95;;;11.60;87.30;;;;;;5037681;28;20040;-78
2024/01/24 06:30:09;;;;;;;44.38;9.98;;;11.50;87.50;;;;;;5036325;28;20045;-79
2024/01/24 06:32:35;;;;;;;45.83;10.65;;;11.50;87.50;;;;;;5037271;28;20023;-78
2024/01/24 06:35:01;;;;;;;51.13;10.75;;;11.40;87.60;;;;;;5042194;28;20049;-78
2024/01/24 06:37:27;;;;;;;56.38;11.68;;;11.40;87.70;;;;;;5042993;28;20083;-78
2024/01/24 06:39:52;;;;;;;47.67;11.65;;;11.30;88.00;;;;;;5040511;28;20045;-78
2024/01/24 06:42:19;;;;;;;49.42;10.55;;;11.40;88.10;;;;;;5045982;28;20083;-77
2024/01/24 06:44:45;;;;;;;49.15;9.38;;;11.40;88.00;;;;;;5040163;28;20025;-78
2024/01/24 06:47:11;;;;;;;44.22;9.48;;;11.40;87.90;;;;;;5040274;28;20502;-78
2024/01/24 06:49:36;;;;;;;44.92;10.27;;;11.30;87.80;;;;;;5045054;28;20052;-78
2024/01/24 06:52:02;;;;;;;46.88;11.48;;;11.30;87.80;;;;;;5043279;28;20104;-77
2024/01/24 06:54:28;;;;;;;57.08;10.00;;;11.30;87.80;;;;;;5036703;28;20033;-85
2024/01/24 06:56:53;;;;;;;50.63;11.68;;;11.30;87.90;;;;;;5038970;28;20040;-78
2024/01/24 06:59:19;;;;;;;45.88;9.75;;;11.20;88.00;;;;;;5040965;28;20045;-78
2024/01/24 07:01:45;;;;;;;57.80;11.40;;;11.20;88.20;;;;;;5035616;28;20017;-79
2024/01/24 07:04:11;;;;;;;54.55;12.88;;;11.10;88.40;;;;;;5036064;28;20041;-78
2024/01/24 07:06:37;;;;;;;41.53;9.75;;;11.10;88.50;;;;;;5035016;28;20641;-78
2024/01/24 07:09:02;;;;;;;53.13;10.35;;;11.10;88.60;;;;;;5039125;28;20049;-77
2024/01/24 07:11:28;;;;;;;52.63;11.10;;;11.10;88.20;;;;;;5041569;28;20013;-77
2024/01/24 07:13:54;;;;;;;49.17;9.85;;;11.10;88.20;;;;;;5031224;28;20034;-77
2024/01/24 07:16:20;;;;;;;48.70;10.65;;;11.10;88.20;;;;;;5034997;28;20357;-77
2024/01/24 07:18:45;;;;;;;46.47;10.30;;;11.10;88.00;;;;;;5042684;28;20036;-72
2024/01/24 07:21:11;;;;;;;47.03;10.85;;;11.10;87.90;;;;;;5039629;28;20017;-72
2024/01/24 07:23:36;;;;;;;53.33;11.07;;;11.10;87.90;;;;;;5048639;28;20102;-74
2024/01/24 07:26:02;;;;;;;51.00;10.77;;;11.10;87.90;;;;;;5042078;28;20033;-72
2024/01/24 07:28:29;;;;;;;46.85;11.82;;;11.10;88.00;;;;;;5047155;28;20587;-72
2024/01/24 07:30:55;;;;;;;54.03;11.60;;;11.10;88.00;;;;;;5044131;28;20107;-72
2024/01/24 07:33:21;;;;;;;53.50;12.13;;;11.10;88.20;;;;;;5037092;28;20104;-72
2024/01/24 07:35:47;;;;;;;49.08;10.23;;;11.10;87.90;;;;;;5041903;28;20045;-72
2024/01/24 07:38:13;;;;;;;52.40;10.77;;;11.10;88.20;;;;;;5041219;28;20025;-72
2024/01/24 07:40:38;;;;;;;45.60;9.25;;;11.00;88.30;;;;;;5049616;28;20060;-73
2024/01/24 07:43:04;;;;;;;55.65;10.23;;;11.10;88.10;;;;;;5055636;28;20437;-73
2024/01/24 07:45:30;;;;;;;50.85;11.13;;;11.00;88.10;;;;;;5037216;28;20041;-73
2024/01/24 07:47:56;;;;;;;54.88;11.95;;;11.00;88.00;;;;;;5035983;28;20069;-73
2024/01/24 07:50:21;;;;;;;51.92;10.55;;;11.00;88.00;;;;;;5035627;28;20514;-73
2024/01/24 07:52:47;;;;;;;48.80;9.60;;;11.00;87.90;;;;;;5034472;28;20014;-73
2024/01/24 07:55:13;;;;;;;55.00;11.77;;;11.00;88.00;;;;;;5034995;28;20021;-73
2024/01/24 07:57:40;;;;;;;53.97;11.32;;;11.00;87.70;;;;;;5037301;28;20087;-73
2024/01/24 08:00:06;;;;;;;54.72;11.77;;;11.00;87.70;;;;;;5044077;28;20541;-73
2024/01/24 08:02:32;;;;;;;52.65;11.95;;;10.90;87.80;;;;;;5041628;28;20086;-73
2024/01/24 08:04:58;;;;;;;47.60;10.60;;;10.90;87.70;;;;;;5043336;28;20466;-73
2024/01/24 08:07:24;;;;;;;47.10;11.80;;;11.00;87.20;;;;;;5043677;28;20041;-73
2024/01/24 08:09:49;;;;;;;50.05;11.55;;;10.90;87.10;;;;;;5043282;28;20083;-73
2024/01/24 08:12:15;;;;;;;58.13;11.80;;;11.00;86.90;;;;;;5036929;28;20017;-82
2024/01/24 08:14:41;;;;;;;45.63;10.00;;;11.00;86.90;;;;;;5040438;28;20132;-73
2024/01/24 08:17:08;;;;;;;51.63;10.50;;;10.90;86.70;;;;;;5039032;28;20092;-73
2024/01/24 08:19:34;;;;;;;53.05;10.95;;;10.90;86.90;;;;;;5046118;28;20040;-75
2024/01/24 08:22:00;;;;;;;55.22;10.65;;;11.00;86.60;;;;;;5044503;28;20093;-74
2024/01/24 08:24:25;;;;;;;48.40;10.38;;;11.00;86.30;;;;;;5042794;28;20045;-75
2024/01/24 08:26:52;;;;;;;47.03;9.82;;;11.00;86.20;;;;;;5040787;28;20029;-75
2024/01/24 08:29:19;;;;;;;50.67;10.77;;;11.10;86.00;;;;;;5041154;28;20037;-77
2024/01/24 08:31:45;;;;;;;47.45;10.30;;;11.10;85.80;;;;;;5041392;28;20024;-74
2024/01/24 08:34:10;;;;;;;50.42;11.23;;;11.10;85.60;;;;;;5041346;28;20041;-76
2024/01/24 08:36:36;;;;;;;43.88;10.15;;;11.10;85.90;;;;;;5034277;28;20013;-75
2024/01/24 08:39:05;;;;;;;56.47;11.00;;;11.10;85.80;;;;;;5039839;28;20549;-74
2024/01/24 08:41:32;;;;;;;48.60;9.65;;;11.10;85.70;;;;;;5044609;28;20017;-74
2024/01/24 08:43:57;;;;;;;51.63;10.98;;;11.10;85.80;;;;;;5031044;28;20032;-75
2024/01/24 08:46:23;;;;;;;56.50;11.57;;;11.10;85.90;;;;;;5034048;28;20021;-74
2024/01/24 08:48:49;;;;;;;54.30;10.25;;;11.10;85.80;;;;;;5034857;28;20033;-74
2024/01/24 08:51:15;;;;;;;57.60;11.10;;;11.20;85.80;;;;;;5035236;28;20067;-74
2024/01/24 08:53:40;;;;;;;46.78;9.68;;;11.20;85.90;;;;;;5044193;28;20029;-74
2024/01/24 08:56:06;;;;;;;54.15;11.50;;;11.30;85.90;;;;;;5036662;28;20029;-74
2024/01/24 08:58:32;;;;;;;55.58;11.98;;;11.20;86.20;;;;;;5037569;28;20048;-74
2024/01/24 09:00:58;;;;;;;55.08;12.55;;;11.20;86.40;;;;;;5038890;28;20082;-73
2024/01/24 09:03:24;;;;;;;45.95;9.77;;;11.20;86.40;;;;;;5038131;28;20016;-73
2024/01/24 09:05:51;;;;;;;53.38;10.45;;;11.30;86.40;;;;;;5042706;28;20033;-73
2024/01/24 09:08:17;;;;;;;53.05;11.75;;;11.30;86.40;;;;;;5046251;28;20035;-73
2024/01/24 09:10:42;;;;;;;49.33;10.50;;;11.40;86.40;;;;;;5046782;28;20112;-74
2024/01/24 09:13:08;;;;;;;55.13;10.80;;;11.40;86.40;;;;;;5031883;28;20056;-73
2024/01/24 09:15:34;;;;;;;52.60;11.90;;;11.40;86.50;;;;;;5036559;28;20631;-72
2024/01/24 09:18:00;;;;;;;51.40;11.60;;;11.40;86.50;;;;;;5039660;28;20087;-73
2024/01/24 09:20:25;;;;;;;48.35;9.60;;;11.50;86.70;;;;;;5040676;28;20098;-75
2024/01/24 09:22:51;;;;;;;51.72;11.38;;;11.50;86.10;;;;;;5044488;28;20025;-77
2024/01/24 09:25:18;;;;;;;49.65;11.70;;;11.50;86.20;;;;;;5031208;28;20037;-74
2024/01/24 09:27:44;;;;;;;55.05;11.68;;;11.60;86.10;;;;;;5047741;28;20037;-73
2024/01/24 09:30:11;;;;;;;58.50;12.75;;;11.60;86.10;;;;;;5044342;28;20377;-74
2024/01/24 09:32:36;;;;;;;56.50;12.23;;;11.60;86.00;;;;;;5050277;28;20028;-73
2024/01/24 09:35:03;;;;;;;51.97;11.60;;;11.60;85.70;;;;;;5034329;28;20041;-72
2024/01/24 09:37:29;;;;;;;46.08;10.10;;;11.60;85.50;;;;;;5047706;28;20017;-72
2024/01/24 09:39:55;;;;;;;46.63;10.13;;;11.70;85.60;;;;;;5047840;28;20369;-73
2024/01/24 09:42:25;;;;;;;54.10;11.57;;;11.70;85.50;;;;;;5058060;28;20017;-73
2024/01/24 09:44:51;;;;;;;52.25;10.90;;;11.70;85.50;;;;;;5057657;28;20423;-72
2024/01/24 09:47:19;;;;;;;44.53;10.98;;;11.80;85.20;;;;;;5061715;28;20021;-73
2024/01/24 09:49:46;;;;;;;53.85;10.80;;;11.80;85.20;;;;;;5054634;28;20047;-72
2024/01/24 09:52:17;;;;;;;49.72;10.90;;;11.80;85.40;;;;;;5057598;28;20511;-73
2024/01/24 09:54:43;;;;;;;54.33;11.98;;;11.90;85.30;;;;;;5051394;28;20041;-74
2024/01/24 09:57:10;;;;;;;54.78;12.07;;;11.90;84.80;;;;;;5055009;28;20059;-72
2024/01/24 09:59:36;;;;;;;46.10;10.77;;;11.90;84.70;;;;;;5052610;28;20098;-72
2024/01/24 10:02:03;;;;;;;52.13;11.07;;;11.90;84.30;;;;;;5053587;28;20469;-71
2024/01/24 10:04:36;;;;;;;49.38;10.57;;;12.00;84.30;;;;;;5047634;28;20036;-73
2024/01/24 10:07:04;;;;;;;48.50;12.60;;;12.00;84.00;;;;;;5053888;28;20025;-73
2024/01/24 10:09:29;;;;;;;44.60;11.13;;;12.10;83.70;;;;;;5047037;28;20593;-73
2024/01/24 10:11:55;;;;;;;42.17;10.07;;;12.10;83.80;;;;;;5051946;28;20048;-72
2024/01/24 10:14:22;;;;;;;51.22;11.18;;;12.10;83.50;;;;;;5052631;28;20048;-73
2024/01/24 10:16:50;;;;;;;48.20;10.50;;;12.20;82.40;;;;;;5053145;28;20031;-72
2024/01/24 10:19:17;;;;;;;42.03;10.68;;;12.20;82.00;;;;;;5052383;28;20112;-73
2024/01/24 10:21:43;;;;;;;43.75;9.98;;;12.30;82.00;;;;;;5052917;28;20013;-72
2024/01/24 10:24:09;;;;;;;45.13;9.45;;;12.40;81.60;;;;;;5052047;28;20095;-73
2024/01/24 10:26:35;;;;;;;45.65;9.40;;;12.40;81.70;;;;;;5053169;28;20323;-72
2024/01/24 10:29:01;;;;;;;40.38;8.60;;;12.50;81.10;;;;;;5052831;28;20043;-73
2024/01/24 10:31:26;;;;;;;39.72;9.68;;;12.40;80.90;;;;;;5052857;28;20351;-72
2024/01/24 10:33:57;;;;;;;42.40;10.18;;;12.40;80.70;;;;;;5051822;28;20402;-73
2024/01/24 10:36:23;;;;;;;45.42;9.43;;;12.40;80.00;;;;;;5032237;28;20025;-74
2024/01/24 10:38:52;;;;;;;46.28;10.63;;;12.40;80.10;;;;;;5032215;28;20064;-74
2024/01/24 10:41:21;;;;;;;41.17;9.48;;;12.30;80.10;;;;;;5032929;28;20497;-74
2024/01/24 10:43:50;;;;;;;46.88;9.13;;;12.40;80.90;;;;;;5036070;28;20507;-72
2024/01/24 10:46:16;;;;;;;43.15;8.88;;;12.60;80.90;;;;;;5052701;28;20535;-72
2024/01/24 10:48:42;;;;;;;39.92;9.88;;;12.60;81.20;;;;;;5034463;28;20041;-73
2024/01/24 10:51:08;;;;;;;41.20;9.30;;;12.60;81.00;;;;;;5032938;28;20113;-72
2024/01/24 10:53:35;;;;;;;44.90;10.48;;;12.60;80.80;;;;;;5032270;28;20108;-73
2024/01/24 10:56:02;;;;;;;50.47;9.88;;;12.50;81.10;;;;;;5033876;28;20021;-71
2024/01/24 10:58:28;;;;;;;39.95;9.50;;;12.50;80.70;;;;;;5035519;28;20028;-72
2024/01/24 11:00:55;;;;;;;46.40;10.02;;;12.40;80.20;;;;;;5034770;28;20437;-73
2024/01/24 11:03:21;;;;;;;47.15;10.20;;;12.40;79.80;;;;;;5048524;28;20361;-73
2024/01/24 11:05:55;;;;;;;41.60;8.95;;;12.50;79.90;;;;;;5035902;28;20107;-73
2024/01/24 11:08:36;;;;;;;;;;;12.40;79.90;;;;;;5036957;28;20025;-73
2024/01/24 11:11:07;;;;;;;35.50;8.07;;;12.60;79.80;;;;;;5035952;28;19909;-73
2024/01/24 11:13:37;;;;;;;42.20;9.05;;;12.60;79.20;;;;;;5035783;28;20067;-73
2024/01/24 11:16:41;;;;;;;38.17;9.13;;;12.60;78.60;;;;;;5036489;28;20033;-73
2024/01/24 11:19:23;;;;;;;35.83;7.95;;;12.60;79.00;;;;;;5035761;28;20025;-72
2024/01/24 11:21:50;;;;;;;38.55;8.93;;;12.70;78.20;;;;;;5036067;28;20461;-72
2024/01/24 11:24:41;;;;;;;39.60;8.77;;;12.80;78.80;;;;;;5035099;28;20149;-73
2024/01/24 11:27:25;;;;;;;43.65;10.48;;;12.80;78.40;;;;;;5056205;28;20017;-73
2024/01/24 11:29:52;;;;;;;33.95;8.30;;;12.90;78.50;;;;;;5055813;28;20044;-73
2024/01/24 11:32:46;;;;;;;37.97;9.20;;;13.00;78.30;;;;;;5055977;28;20099;-73
2024/01/24 11:35:42;;;;;;;37.88;8.98;;;13.00;77.40;;;;;;5058085;28;20056;-73
2024/01/24 11:38:16;;;;;;;31.88;8.60;;;13.00;77.10;;;;;;5053071;28;20032;-72
2024/01/24 11:40:47;;;;;;;27.08;7.35;;;13.00;76.90;;;;;;5035431;28;20128;-74
2024/01/24 11:43:27;;;;;;;34.85;8.43;;;12.90;77.40;;;;;;5035979;28;20022;-75
2024/01/24 11:46:02;;;;;;;42.53;8.10;;;13.10;77.20;;;;;;5034213;28;20397;-74
2024/01/24 11:48:29;;;;;;;34.00;7.03;;;13.10;76.70;;;;;;5044375;28;20373;-74
2024/01/24 11:51:00;;;;;;;38.38;9.30;;;12.90;76.40;;;;;;5055182;28;20029;-74
2024/01/24 11:53:26;;;;;;;40.42;8.57;;;12.60;76.80;;;;;;5055719;28;20017;-73
2024/01/24 11:55:58;;;;;;;38.90;8.40;;;12.90;77.70;;;;;;5054951;28;20488;-73
2024/01/24 11:58:26;;;;;;;33.50;8.90;;;12.90;76.90;;;;;;5051547;28;20019;-74
2024/01/24 12:00:56;;;;;;;35.70;8.65;;;12.90;77.20;;;;;;5036907;28;20565;-74
2024/01/24 12:03:22;;;;;;;38.38;8.25;;;13.00;77.30;;;;;;5051549;28;20028;-74
2024/01/24 12:05:49;;;;;;;36.28;7.82;;;13.10;77.40;;;;;;5054992;28;20053;-74
2024/01/24 12:08:15;;;;;;;41.85;8.98;;;13.10;76.10;;;;;;5055395;28;20025;-74
2024/01/24 12:10:40;;;;;;;35.08;7.97;;;13.00;76.90;;;;;;5041529;28;20679;-74
2024/01/24 12:13:07;;;;;;;33.40;8.13;;;12.80;77.30;;;;;;5045771;28;20074;-74
2024/01/24 12:15:36;;;;;;;30.75;7.10;;;12.90;77.10;;;;;;5036484;28;20026;-75
2024/01/24 12:18:09;;;;;;;32.45;7.10;;;12.70;77.10;;;;;;5036758;28;20025;-74
2024/01/24 12:20:35;;;;;;;34.22;8.55;;;12.60;76.60;;;;;;5040481;28;20449;-73
2024/01/24 12:23:06;;;;;;;33.20;8.15;;;12.50;77.10;;;;;;5041847;28;20017;-73
2024/01/24 12:25:32;;;;;;;37.88;8.77;;;12.50;77.40;;;;;;5036189;28;20108;-73
2024/01/24 12:27:58;;;;;;;36.50;8.20;;;12.70;77.40;;;;;;5038474;28;20501;-73
2024/01/24 12:30:32;;;;;;;38.80;7.78;;;12.90;77.70;;;;;;5041051;28;20464;-74
2024/01/24 12:33:02;;;;;;;38.88;7.90;;;12.60;76.80;;;;;;5032169;28;20476;-77